Portada
METAR-TAF:

METAR-TAF

Aeroports :

Almagro, Espanya

latitud: 38-57-11N, longitud: 3-44-29W, altitud: 629 m

Observació

L'informe es va fer fa 14 minuts, a les 20:00 UTC
Vent 8 kt del Nord-Est, variant entre Nord i Est
Temperatura 4°C
Humitat 81%
Pressió 1019 hPa
Visibilitat 10 km o més
Cel ennuvolat a una alçada de 2900 ft

METAR: LEAO 202000Z 04008KT 350V090 9999 BKN029 04/01 Q1019

Hora: 21:14 (20:14 UTC)

Pronòstic

L'informe es va fer fa 3 hores i 14 minuts, a les 17:00 UTC
Pronòstic vàlid del 20 a les 18 UTC al 21 a les 03 UTC
Vent 12 kt del Nord/Nord-Est
Visibilitat 10 km o més
Cel ennuvolat a una alçada de 3000 ft
Probabilitat 40% :
Temporalment
l' 20 a les 18 UTC al 21 a les 03 UTC
Vent 15 kt del Nord/Nord-Est amb ràfegues de 25 kt

TAF: LEAO 201700Z 2018/2103 03012KT 9999 BKN030 PROB40 TEMPO 2018/2103 03015G25KT

Observacions i pronòstics meteorològics de més de 4000 aeroports (METAR i TAF).

Les estacions disponibles són els punts grocs i vermells al mapa.

Posi el ratolí al punt desitjat per veure el nom de l'estació.

Feu clic per veure les observacions i els pronòstics meteorològics.

Per canviar el mapa: feu clic els botons verds amb una creu de color negre per apropar; al botó verd amb un guió per allunyar la imatge; o en les fletxes verdes per a mapes adjacents.


METAR-TAF: